Jaffrey Airport Silver Ranch Airport

About
Name: Jaffrey Airport Silver Ranch Airport
Identifier:  AFN/KAFN
Local Time:  23. Aug 00:47 EDT
Location
Flights per Day
0 flights
Distance: 488km (303mi)
Punctuality
0% (0 flights per day delayed)
Delay Average: 35 minutes
Current Weather
 21 C (Humidity: 56%)
  4kt (7km/h / 4mph) from 280°
  Overcast at 11,000 feet (3,352 meter)
  16km (10 mi.)
 METAR KAFN 230352Z AUTO 28004KT 10SM OVC110 21/12 A2993 RMK AO2 SLP133 T02110122

Current Flights

Departures
Number Departure To Airline
Arrivals
Number Arrival From Airline

Current Delays

Departures
N/A
Arrivals
N/A

Destinations

Top Destinations
Airport Flights
per week
Seats
per week
  Trenton (TTN) 0 - 0 0
  Bar Harbor (BHB) 0 - 0 0
  Wildwood (WWD) 0 - 0 0
  Keene (EEN) 0 - 0 0

Airlines & Planes

Top Airlines
Airline Flights
per Day
Seats
per Day
  Nolinor Aviation 0 -
Nordwind Airlines 0 -
Top Plane Types
Model Flights Seats
Cessna C172 0.1/day - 0
Piper PA28-181 0.0/day - 0